Time;durP1;ratioP1;P1;durP2;ratioP2;P2;SDS_P1;SDS_P2;PMS_P1;PMS_P2;Temp;Humidity;BMP_temperature;BMP_pressure;BME280_temperature;BME280_humidity;BME280_pressure;Samples;Min_cycle;Max_cycle;Signal;HPM_P1;HPM_P2
2023/05/17 00:02:06;;;;;;;6.37;4.57;;;;;;;6.04;100.00;96518.25;7396495;19;20349;-75
2023/05/17 00:04:33;;;;;;;5.30;4.23;;;;;;;6.21;100.00;96543.91;7395829;19;20384;-75
2023/05/17 00:07:00;;;;;;;4.70;3.20;;;;;;;5.97;100.00;96502.09;7396657;19;20367;-75
2023/05/17 00:09:27;;;;;;;4.77;2.60;;;;;;;6.08;100.00;96531.56;7394041;19;20736;-75
2023/05/17 00:11:57;;;;;;;4.30;3.80;;;;;;;6.02;100.00;96538.00;7396216;19;20936;-75
2023/05/17 00:14:24;;;;;;;5.20;3.63;;;;;;;6.06;100.00;96531.09;7396757;19;20385;-75
2023/05/17 00:16:51;;;;;;;5.27;3.87;;;;;;;5.92;100.00;96510.09;7397021;19;20377;-75
2023/05/17 00:19:18;;;;;;;5.97;3.70;;;;;;;6.12;100.00;96535.94;7395285;19;20401;-75
2023/05/17 00:21:45;;;;;;;5.20;3.80;;;;;;;6.11;100.00;96551.97;7393532;19;20393;-75
2023/05/17 00:24:12;;;;;;;3.20;2.10;;;;;;;5.68;100.00;96519.94;7394530;19;20340;-74
2023/05/17 00:26:39;;;;;;;2.60;2.20;;;;;;;5.67;100.00;96532.28;7396500;19;20353;-74
2023/05/17 00:29:06;;;;;;;3.37;2.80;;;;;;;5.63;100.00;96550.44;7395549;19;20392;-74
2023/05/17 00:31:34;;;;;;;3.80;2.73;;;;;;;5.54;100.00;96514.66;7395224;19;20448;-75
2023/05/17 00:34:01;;;;;;;3.93;2.20;;;;;;;5.55;100.00;96560.81;7394629;19;20376;-75
2023/05/17 00:36:28;;;;;;;5.53;2.53;;;;;;;5.61;100.00;96562.28;7396723;19;20712;-74
2023/05/17 00:38:54;;;;;;;2.63;1.47;;;;;;;5.47;100.00;96559.59;7396826;19;20345;-74
2023/05/17 00:41:21;;;;;;;2.00;1.90;;;;;;;5.30;100.00;96526.06;7413095;19;20432;-75
2023/05/17 00:43:48;;;;;;;2.17;1.47;;;;;;;5.64;100.00;96559.09;7430499;19;20408;-74
2023/05/17 00:46:15;;;;;;;3.10;1.60;;;;;;;5.63;100.00;96568.03;7431749;19;20372;-74
2023/05/17 00:48:43;;;;;;;3.00;1.80;;;;;;;5.67;100.00;96563.75;7413983;19;20884;-75
2023/05/17 00:51:11;;;;;;;2.70;2.23;;;;;;;5.53;100.00;96541.97;7395419;19;20507;-74
2023/05/17 00:53:38;;;;;;;1.77;1.57;;;;;;;5.52;100.00;96546.44;7395561;19;20376;-74
2023/05/17 00:56:05;;;;;;;3.53;1.90;;;;;;;5.39;100.00;96528.03;7396434;19;20426;-74
2023/05/17 00:58:32;;;;;;;6.90;1.53;;;;;;;5.41;100.00;96525.91;7394829;19;20757;-74
2023/05/17 01:01:00;;;;;;;7.90;2.50;;;;;;;5.63;100.00;96549.66;7394985;19;20451;-75
2023/05/17 01:03:27;;;;;;;1.53;1.37;;;;;;;5.48;100.00;96552.53;7394144;19;20392;-75
2023/05/17 01:05:54;;;;;;;2.80;1.50;;;;;;;5.43;100.00;96540.28;7393567;19;20401;-75
2023/05/17 01:08:21;;;;;;;2.93;1.50;;;;;;;5.09;100.00;96510.97;7395419;19;20369;-75
2023/05/17 01:11:09;;;;;;;3.13;1.90;;;;;;;5.23;100.00;96549.25;7391630;19;20432;-76
2023/05/17 01:13:57;;;;;;;2.87;2.20;;;;;;;5.14;100.00;96537.84;7395335;19;20361;-74
2023/05/17 01:16:31;;;;;;;1.80;1.47;;;;;;;4.91;100.00;96491.56;7394157;19;20365;-74
2023/05/17 01:19:15;;;;;;;4.20;1.90;;;;;;;5.08;100.00;96515.44;7393788;19;20404;-74
2023/05/17 01:22:14;;;;;;;6.73;2.03;;;;;;;5.16;100.00;96542.81;7393334;19;20425;-74
2023/05/17 01:24:46;;;;;;;2.47;1.53;;;;;;;5.10;100.00;96536.88;7396198;19;20375;-74
2023/05/17 01:27:14;;;;;;;2.80;1.50;;;;;;;5.12;100.00;96544.47;7392777;19;20393;-74
2023/05/17 01:29:43;;;;;;;3.77;2.53;;;;;;;4.92;100.00;96517.47;7394483;19;20349;-74
2023/05/17 01:32:12;;;;;;;4.50;1.80;;;;;;;5.24;100.00;96550.03;7392783;19;20893;-74
2023/05/17 01:34:40;;;;;;;2.37;1.67;;;;;;;5.25;100.00;96555.00;7399836;19;20916;-74
2023/05/17 01:37:07;;;;;;;3.37;1.43;;;;;;;4.93;100.00;96523.50;7401841;19;20351;-74
2023/05/17 01:39:35;;;;;;;5.80;1.53;;;;;;;4.81;100.00;96537.03;7401843;19;20379;-74
2023/05/17 01:42:08;;;;;;;3.40;1.73;;;;;;;4.98;100.00;96571.38;7400596;19;20765;-74
2023/05/17 01:44:49;;;;;;;10.27;1.90;;;;;;;5.19;100.00;96571.84;7402218;19;20357;-74
2023/05/17 01:47:31;;;;;;;4.07;1.70;;;;;;;4.89;100.00;96522.50;7402728;19;20344;-74
2023/05/17 01:49:59;;;;;;;1.67;1.57;;;;;;;5.16;100.00;96577.66;7398644;19;20412;-74
2023/05/17 01:52:52;;;;;;;4.73;1.70;;;;;;;5.27;100.00;96578.28;7401630;19;20380;-75
2023/05/17 01:55:31;;;;;;;4.00;1.93;;;;;;;5.26;100.00;96582.75;7400868;19;20397;-75
2023/05/17 01:58:02;;;;;;;7.87;1.90;;;;;;;5.04;100.00;96562.38;7399532;19;20901;-75
2023/05/17 02:00:30;;;;;;;4.27;2.67;;;;;;;5.13;100.00;96585.31;7400096;19;20428;-74
2023/05/17 02:02:57;;;;;;;7.40;1.90;;;;;;;5.29;100.00;96591.88;7399935;19;20436;-74
2023/05/17 02:05:24;;;;;;;5.60;2.40;;;;;;;5.06;100.00;96580.41;7400663;19;20444;-74
2023/05/17 02:07:51;;;;;;;7.27;1.53;;;;;;;4.57;100.00;96508.31;7399350;19;20372;-74
2023/05/17 02:10:18;;;;;;;9.23;2.20;;;;;;;4.47;100.00;96490.09;7398789;19;20433;-75
2023/05/17 02:12:45;;;;;;;1.40;1.30;;;;;;;4.77;100.00;96559.59;7399572;19;20384;-75
2023/05/17 02:15:12;;;;;;;2.67;1.70;;;;;;;4.73;100.00;96541.06;7400522;19;20368;-76
2023/05/17 02:17:39;;;;;;;3.00;1.73;;;;;;;4.95;100.00;96592.13;7399362;19;20713;-75
2023/05/17 02:20:08;;;;;;;2.77;1.80;;;;;;;5.07;100.00;96595.06;7399873;19;20808;-75
2023/05/17 02:22:35;;;;;;;9.27;1.70;;;;;;;5.08;100.00;96588.81;7401068;19;20873;-75
2023/05/17 02:25:02;;;;;;;3.30;1.70;;;;;;;4.82;100.00;96598.06;7402261;19;20903;-74
2023/05/17 02:27:29;;;;;;;2.87;1.53;;;;;;;4.97;100.00;96585.53;7396584;19;20372;-75
2023/05/17 02:29:58;;;;;;;7.60;2.13;;;;;;;4.69;100.00;96579.38;7398927;19;20961;-75
2023/05/17 02:32:25;;;;;;;3.10;1.80;;;;;;;4.67;100.00;96601.63;7398897;19;20385;-75
2023/05/17 02:34:53;;;;;;;2.90;1.67;;;;;;;4.57;100.00;96575.59;7400953;19;20416;-74
2023/05/17 02:37:22;;;;;;;2.83;1.77;;;;;;;4.39;100.00;96595.41;7399011;19;20344;-75
2023/05/17 02:39:49;;;;;;;6.40;2.17;;;;;;;4.72;100.00;96588.50;7399927;19;20423;-75
2023/05/17 02:42:16;;;;;;;2.50;2.10;;;;;;;4.57;100.00;96581.63;7398735;19;20368;-75
2023/05/17 02:44:43;;;;;;;2.53;1.90;;;;;;;4.20;100.00;96574.44;7400053;19;20424;-75
2023/05/17 02:47:10;;;;;;;6.53;1.67;;;;;;;4.12;100.00;96560.13;7398827;19;20375;-75
2023/05/17 02:49:37;;;;;;;5.73;2.03;;;;;;;3.98;100.00;96584.63;7398149;19;20389;-75
2023/05/17 02:52:04;;;;;;;5.83;1.80;;;;;;;4.01;100.00;96571.78;7398583;19;20372;-75
2023/05/17 02:54:32;;;;;;;2.97;1.47;;;;;;;4.30;100.00;96556.03;7397478;19;20377;-75
2023/05/17 02:57:00;;;;;;;3.53;1.90;;;;;;;4.17;100.00;96567.16;7398224;19;20769;-75
2023/05/17 02:59:27;;;;;;;3.90;2.40;;;;;;;4.01;100.00;96545.63;7397515;19;20420;-75
2023/05/17 03:01:53;;;;;;;3.03;2.20;;;;;;;4.27;100.00;96581.94;7398743;19;20391;-75
2023/05/17 03:04:21;;;;;;;4.10;2.97;;;;;;;4.23;100.00;96570.50;7397047;19;20393;-75
2023/05/17 03:06:49;;;;;;;2.37;1.23;;;;;;;3.93;100.00;96537.59;7397139;19;20393;-75
2023/05/17 03:09:17;;;;;;;4.10;1.93;;;;;;;4.06;100.00;96586.63;7395965;19;20425;-75
2023/05/17 03:11:47;;;;;;;4.40;2.50;;;;;;;4.11;100.00;96597.03;7396225;19;20444;-74
2023/05/17 03:14:19;;;;;;;5.03;2.03;;;;;;;4.11;100.00;96589.19;7397103;19;20757;-74
2023/05/17 03:16:47;;;;;;;2.67;1.60;;;;;;;3.94;100.00;96578.38;7398302;19;20957;-74
2023/05/17 03:19:15;;;;;;;4.50;2.27;;;;;;;4.27;100.00;96616.75;7396440;19;20384;-74
2023/05/17 03:21:43;;;;;;;2.60;1.60;;;;;;;4.18;100.00;96579.19;7396466;19;20421;-74
2023/05/17 03:24:11;;;;;;;5.10;1.87;;;;;;;4.12;100.00;96598.59;7396555;19;20372;-74
2023/05/17 03:26:38;;;;;;;6.03;2.90;;;;;;;4.12;100.00;96591.53;7398317;19;20368;-74
2023/05/17 03:29:07;;;;;;;2.90;1.90;;;;;;;4.04;100.00;96613.06;7396258;19;20374;-74
2023/05/17 03:31:35;;;;;;;3.47;1.87;;;;;;;3.91;100.00;96613.72;7396276;19;20435;-75
2023/05/17 03:34:02;;;;;;;2.57;2.03;;;;;;;3.70;100.00;96591.41;7398078;19;20351;-74
2023/05/17 03:36:30;;;;;;;2.73;2.10;;;;;;;3.73;100.00;96620.41;7397994;19;20368;-74
2023/05/17 03:38:57;;;;;;;3.33;2.03;;;;;;;3.52;100.00;96582.44;7396526;19;20401;-74
2023/05/17 03:41:24;;;;;;;4.10;1.80;;;;;;;3.83;100.00;96622.94;7396584;19;20420;-74
2023/05/17 03:43:51;;;;;;;3.57;2.10;;;;;;;3.39;100.00;96568.16;7396079;19;20376;-74
2023/05/17 03:46:19;;;;;;;4.30;2.20;;;;;;;3.72;100.00;96621.47;7398192;19;20427;-74
2023/05/17 03:48:47;;;;;;;3.13;1.90;;;;;;;3.62;100.00;96605.88;7396658;19;20377;-74
2023/05/17 03:51:15;;;;;;;3.33;1.77;;;;;;;3.71;100.00;96640.03;7395570;19;20459;-75
2023/05/17 03:53:43;;;;;;;2.87;1.90;;;;;;;3.74;100.00;96645.53;7395986;19;20921;-75
2023/05/17 03:56:10;;;;;;;3.00;1.80;;;;;;;3.67;100.00;96650.28;7397839;19;20393;-75
2023/05/17 03:58:37;;;;;;;7.73;1.90;;;;;;;3.81;100.00;96650.44;7394524;19;20719;-73
2023/05/17 04:01:04;;;;;;;3.30;1.87;;;;;;;3.73;100.00;96630.88;7397057;19;20845;-73
2023/05/17 04:03:32;;;;;;;3.50;2.00;;;;;;;3.27;100.00;96617.38;7395766;19;20925;-74
2023/05/17 04:06:05;;;;;;;4.23;2.40;;;;;;;3.49;100.00;96662.19;7394876;19;20376;-74
2023/05/17 04:08:33;;;;;;;3.30;2.07;;;;;;;3.68;100.00;96658.91;7397060;19;20383;-76
2023/05/17 04:11:09;;;;;;;5.23;2.40;;;;;;;3.75;100.00;96633.22;7393922;19;20420;-76
2023/05/17 04:13:36;;;;;;;5.77;2.73;;;;;;;3.66;100.00;96645.31;7397790;19;20403;-76
2023/05/17 04:16:04;;;;;;;5.13;2.90;;;;;;;3.52;100.00;96609.34;7395689;19;20908;-76
2023/05/17 04:18:34;;;;;;;5.73;2.53;;;;;;;3.94;100.00;96655.03;7399067;19;20337;-76
2023/05/17 04:21:02;;;;;;;7.80;2.43;;;;;;;3.99;100.00;96654.97;7394796;19;20404;-76
2023/05/17 04:23:32;;;;;;;8.70;2.63;;;;;;;4.15;100.00;96664.25;7397635;19;20739;-76
2023/05/17 04:25:59;;;;;;;5.60;2.50;;;;;;;3.99;100.00;96639.28;7395968;19;20399;-76
2023/05/17 04:28:28;;;;;;;2.37;1.97;;;;;;;4.04;100.00;96649.69;7397486;19;20376;-76
2023/05/17 04:30:55;;;;;;;3.83;2.83;;;;;;;4.37;100.00;96673.44;7394891;19;20496;-75
2023/05/17 04:33:23;;;;;;;4.17;3.00;;;;;;;4.06;100.00;96637.13;7395923;19;20379;-75
2023/05/17 04:35:53;;;;;;;5.73;2.50;;;;;;;3.75;100.00;96647.09;7395751;19;20422;-73
2023/05/17 04:38:22;;;;;;;3.13;2.17;;;;;;;4.02;100.00;96675.38;7393862;19;20830;-73
2023/05/17 04:40:50;;;;;;;5.93;3.00;;;;;;;3.89;100.00;96664.75;7394193;19;20432;-73
2023/05/17 04:43:17;;;;;;;3.43;2.10;;;;;;;4.08;100.00;96679.47;7394018;19;20380;-74
2023/05/17 04:45:45;;;;;;;4.17;2.80;;;;;;;4.09;100.00;96664.56;7394875;19;20388;-73
2023/05/17 04:48:15;;;;;;;2.53;2.03;;;;;;;4.12;100.00;96692.78;7393709;19;20410;-74
2023/05/17 04:50:45;;;;;;;4.20;3.20;;;;;;;3.92;100.00;96691.13;7393523;19;20440;-73
2023/05/17 04:53:14;;;;;;;8.07;2.87;;;;;;;3.98;100.00;96666.47;7393854;19;20367;-74
2023/05/17 04:55:41;;;;;;;3.33;2.50;;;;;;;4.14;100.00;96675.78;7395126;19;20380;-74
2023/05/17 04:58:08;;;;;;;4.73;2.33;;;;;;;4.26;100.00;96667.53;7393549;19;20964;-73
2023/05/17 05:00:36;;;;;;;5.60;3.03;;;;;;;4.19;100.00;96674.16;7394250;19;20453;-73
2023/05/17 05:03:06;;;;;;;6.30;2.80;;;;;;;4.48;100.00;96695.84;7393448;19;20404;-73
2023/05/17 05:05:34;;;;;;;7.60;2.97;;;;;;;4.45;100.00;96691.19;7395558;19;20368;-73
2023/05/17 05:08:01;;;;;;;5.40;3.40;;;;;;;4.39;100.00;96668.72;7394144;19;20341;-75
2023/05/17 05:10:29;;;;;;;6.50;2.70;;;;;;;4.86;100.00;96714.31;7402197;19;20952;-75
2023/05/17 05:12:57;;;;;;;8.93;3.20;;;;;;;4.59;100.00;96689.47;7402987;19;20738;-75
2023/05/17 05:15:24;;;;;;;8.50;3.10;;;;;;;5.04;100.00;96710.94;7404177;19;20384;-75
2023/05/17 05:17:55;;;;;;;4.80;3.20;;;;;;;5.05;100.00;96697.56;7404465;19;20900;-75
2023/05/17 05:20:22;;;;;;;12.47;3.27;;;;;;;5.20;100.00;96686.09;7428648;19;20420;-74
2023/05/17 05:22:56;;;;;;;6.07;2.80;;;;;;;5.49;100.00;96716.69;7426461;19;20915;-75
2023/05/17 05:25:23;;;;;;;4.13;2.60;;;;;;;5.12;100.00;96701.69;7401171;19;20473;-75
2023/05/17 05:27:50;;;;;;;5.60;2.93;;;;;;;5.53;100.00;96733.41;7402841;19;20972;-75
2023/05/17 05:30:21;;;;;;;4.57;2.43;;;;;;;5.35;100.00;96732.34;7400445;19;20461;-75
2023/05/17 05:32:51;;;;;;;2.83;2.10;;;;;;;5.53;100.00;96728.94;7403306;19;20373;-75
2023/05/17 05:35:19;;;;;;;5.50;3.10;;;;;;;5.72;100.00;96710.56;7400475;19;20387;-75
2023/05/17 05:37:46;;;;;;;5.13;2.77;;;;;;;5.71;100.00;96742.31;7404053;19;20368;-75
2023/05/17 05:40:13;;;;;;;6.60;3.23;;;;;;;6.04;100.00;96743.97;7400459;19;20420;-75
2023/05/17 05:42:41;;;;;;;5.73;3.07;;;;;;;6.31;100.00;96740.66;7404453;19;20392;-75
2023/05/17 05:45:09;;;;;;;8.60;3.30;;;;;;;6.11;100.00;96727.84;7425919;19;20444;-74
2023/05/17 05:47:37;;;;;;;4.30;2.83;;;;;;;6.77;100.00;96753.75;7436783;19;20360;-73
2023/05/17 05:50:05;;;;;;;4.90;3.13;;;;;;;6.98;100.00;96740.25;7434442;19;20469;-73
2023/05/17 05:52:33;;;;;;;4.60;2.90;;;;;;;6.65;100.00;96723.78;7411656;19;20386;-73
2023/05/17 05:55:00;;;;;;;8.17;3.67;;;;;;;6.81;100.00;96738.19;7400696;19;20398;-73
2023/05/17 05:57:28;;;;;;;9.30;4.43;;;;;;;6.81;100.00;96759.22;7401564;19;20919;-73
2023/05/17 05:59:54;;;;;;;6.50;4.43;;;;;;;6.61;100.00;96734.09;7399305;19;20955;-73
2023/05/17 06:02:22;;;;;;;5.87;3.93;;;;;;;6.65;100.00;96766.59;7397897;19;20357;-73
2023/05/17 06:04:49;;;;;;;7.97;3.23;;;;;;;6.56;100.00;96776.22;7401606;19;20371;-74
2023/05/17 06:07:17;;;;;;;7.53;3.53;;;;;;;6.61;100.00;96777.97;7401100;19;20372;-74
2023/05/17 06:09:44;;;;;;;8.20;4.30;;;;;;;6.75;100.00;96750.66;7399201;19;20376;-73
2023/05/17 06:12:11;;;;;;;7.63;4.17;;;;;;;6.75;100.00;96776.94;7401440;19;20396;-73
2023/05/17 06:14:37;;;;;;;5.13;3.20;;;;;;;6.71;100.00;96764.66;7399804;19;20361;-73
2023/05/17 06:17:05;;;;;;;5.37;3.33;;;;;;;6.65;100.00;96778.94;7401326;19;20365;-73
2023/05/17 06:19:32;;;;;;;11.20;4.60;;;;;;;6.59;100.00;96783.50;7399355;19;20433;-73
2023/05/17 06:21:59;;;;;;;6.87;4.27;;;;;;;6.81;100.00;96780.22;7399908;19;20432;-73
2023/05/17 06:24:26;;;;;;;7.33;4.03;;;;;;;6.72;100.00;96795.91;7399282;19;20378;-73
2023/05/17 06:26:53;;;;;;;8.47;3.63;;;;;;;6.83;100.00;96793.88;7401167;19;20384;-73
2023/05/17 06:29:20;;;;;;;10.30;4.47;;;;;;;6.95;100.00;96769.75;7399949;19;20361;-73
2023/05/17 06:31:47;;;;;;;9.13;4.30;;;;;;;6.86;100.00;96769.66;7399783;19;20412;-73
2023/05/17 06:34:14;;;;;;;7.47;4.60;;;;;;;6.93;100.00;96769.25;7400735;19;20345;-73
2023/05/17 06:36:41;;;;;;;7.97;4.17;;;;;;;6.97;100.00;96788.63;7400216;19;20967;-73
2023/05/17 06:39:08;;;;;;;12.17;3.80;;;;;;;7.22;100.00;96792.66;7398987;19;20409;-73
2023/05/17 06:41:34;;;;;;;8.07;4.90;;;;;;;6.99;100.00;96762.84;7394986;19;20904;-73
2023/05/17 06:44:01;;;;;;;6.97;4.40;;;;;;;7.08;100.00;96764.50;7398980;19;20384;-73
2023/05/17 06:46:28;;;;;;;11.57;4.57;;;;;;;7.00;100.00;96780.16;7396678;19;20411;-73
2023/05/17 06:48:55;;;;;;;7.23;4.10;;;;;;;6.97;100.00;96781.53;7400250;19;20387;-73
2023/05/17 06:51:22;;;;;;;6.70;4.20;;;;;;;7.06;100.00;96786.88;7394892;19;20990;-73
2023/05/17 06:53:49;;;;;;;11.00;5.23;;;;;;;7.26;100.00;96793.59;7400348;19;20337;-73
2023/05/17 06:56:16;;;;;;;6.03;4.20;;;;;;;7.24;100.00;96795.75;7398388;19;20341;-73
2023/05/17 06:58:43;;;;;;;6.97;4.43;;;;;;;6.96;100.00;96771.31;7399879;19;20374;-73
2023/05/17 07:01:11;;;;;;;7.70;3.57;;;;;;;6.95;100.00;96783.69;7394779;19;20428;-73
2023/05/17 07:03:38;;;;;;;7.93;4.40;;;;;;;6.97;100.00;96773.66;7399108;19;20397;-73
2023/05/17 07:06:06;;;;;;;11.60;4.60;;;;;;;6.92;100.00;96759.81;7396851;19;20384;-73
2023/05/17 07:08:33;;;;;;;12.93;5.23;;;;;;;7.13;100.00;96791.75;7398498;19;20375;-73
2023/05/17 07:11:00;;;;;;;10.03;6.13;;;;;;;7.15;100.00;96789.63;7395710;19;20465;-73
2023/05/17 07:13:27;;;;;;;4.03;3.30;;;;;;;6.88;100.00;96766.72;7398755;19;20401;-73
2023/05/17 07:15:53;;;;;;;9.60;4.30;;;;;;;6.97;100.00;96786.78;7398538;19;20409;-73
2023/05/17 07:18:20;;;;;;;7.73;3.17;;;;;;;7.11;100.00;96781.53;7399950;19;20340;-73
2023/05/17 07:20:47;;;;;;;11.47;4.00;;;;;;;7.33;100.00;96804.50;7397011;19;20404;-74
2023/05/17 07:23:14;;;;;;;6.23;4.10;;;;;;;7.13;100.00;96778.63;7398144;19;20409;-73
2023/05/17 07:25:45;;;;;;;11.90;4.80;;;;;;;7.04;100.00;96787.16;7396560;19;20913;-73
2023/05/17 07:28:12;;;;;;;8.33;4.30;;;;;;;7.07;100.00;96786.59;7398678;19;20413;-73
2023/05/17 07:30:38;;;;;;;6.80;3.77;;;;;;;7.24;100.00;96801.03;7395357;19;20436;-73
2023/05/17 07:33:05;;;;;;;5.47;4.37;;;;;;;7.46;100.00;96808.97;7399958;19;20389;-73
2023/05/17 07:35:32;;;;;;;10.00;4.87;;;;;;;7.43;100.00;96814.06;7398178;19;20360;-73
2023/05/17 07:37:59;;;;;;;8.67;4.17;;;;;;;7.56;100.00;96808.00;7397809;19;20449;-73
2023/05/17 07:40:26;;;;;;;11.40;4.33;;;;;;;7.31;100.00;96785.63;7397129;19;20389;-73
2023/05/17 07:42:53;;;;;;;9.73;3.90;;;;;;;7.50;100.00;96804.72;7398155;19;20388;-73
2023/05/17 07:45:20;;;;;;;5.80;3.63;;;;;;;7.51;100.00;96794.97;7396791;19;20387;-74
2023/05/17 07:47:47;;;;;;;11.20;4.10;;;;;;;7.65;100.00;96811.50;7398262;19;20416;-73
2023/05/17 07:50:14;;;;;;;10.33;3.23;;;;;;;7.83;100.00;96829.00;7395910;19;20417;-73
2023/05/17 07:52:41;;;;;;;4.73;3.43;;;;;;;8.13;100.00;96835.47;7399399;19;20377;-73
2023/05/17 07:55:08;;;;;;;4.23;3.37;;;;;;;8.45;100.00;96804.75;7397838;19;20344;-73
2023/05/17 07:57:35;;;;;;;9.50;3.67;;;;;;;8.79;100.00;96849.00;7397756;19;20400;-73
2023/05/17 08:00:03;;;;;;;7.37;3.40;;;;;;;8.27;100.00;96844.09;7397040;19;20401;-73
2023/05/17 08:02:37;;;;;;;6.70;3.63;;;;;;;8.63;100.00;96840.69;7399668;19;20344;-73
2023/05/17 08:05:05;;;;;;;6.97;3.20;;;;;;;9.51;100.00;96838.16;7398137;19;20373;-73
2023/05/17 08:07:31;;;;;;;5.43;2.90;;;;;;;9.67;100.00;96818.16;7394827;19;20769;-73
2023/05/17 08:09:58;;;;;;;6.50;3.40;;;;;;;10.30;100.00;96834.59;7397292;19;20966;-73
2023/05/17 08:12:25;;;;;;;8.87;4.00;;;;;;;9.85;100.00;96841.97;7394590;19;20353;-73
2023/05/17 08:14:52;;;;;;;5.10;3.70;;;;;;;9.47;100.00;96822.16;7396423;19;20393;-73
2023/05/17 08:17:19;;;;;;;6.50;3.23;;;;;;;9.05;100.00;96823.53;7394489;19;20925;-73
2023/05/17 08:19:46;;;;;;;4.77;2.90;;;;;;;8.78;100.00;96837.66;7396466;19;20471;-73
2023/05/17 08:22:14;;;;;;;8.70;3.50;;;;;;;8.85;100.00;96806.41;7394762;19;20439;-73
2023/05/17 08:24:43;;;;;;;7.07;3.27;;;;;;;9.13;100.00;96853.69;7395944;19;20408;-73
2023/05/17 08:27:10;;;;;;;5.90;3.97;;;;;;;8.56;100.00;96798.19;7396024;19;20333;-74
2023/05/17 08:29:40;;;;;;;9.47;4.17;;;;;;;8.89;100.00;96843.47;7396151;19;20392;-73
2023/05/17 08:32:07;;;;;;;5.30;3.40;;;;;;;8.61;100.00;96832.31;7393577;19;20405;-73
2023/05/17 08:34:34;;;;;;;6.00;3.00;;;;;;;9.00;100.00;96859.81;7396041;19;20393;-73
2023/05/17 08:37:01;;;;;;;11.40;2.50;;;;;;;8.68;100.00;96853.75;7394682;19;20365;-73
2023/05/17 08:39:28;;;;;;;8.77;3.70;;;;;;;8.49;100.00;96839.97;7395862;19;20357;-73
2023/05/17 08:41:58;;;;;;;4.50;3.70;;;;;;;8.80;100.00;96869.00;7394329;19;20909;-73
2023/05/17 08:44:27;;;;;;;4.57;2.87;;;;;;;8.48;100.00;96860.28;7394508;19;20378;-73
2023/05/17 08:46:55;;;;;;;5.07;3.27;;;;;;;8.27;100.00;96856.50;7394744;19;20704;-73
2023/05/17 08:49:24;;;;;;;5.83;3.20;;;;;;;8.27;100.00;96852.00;7395703;19;20905;-73
2023/05/17 08:51:53;;;;;;;8.43;3.53;;;;;;;8.22;100.00;96864.53;7393603;19;20393;-73
2023/05/17 08:54:21;;;;;;;6.80;3.53;;;;;;;7.91;100.00;96840.72;7396188;19;20376;-73
2023/05/17 08:56:52;;;;;;;5.43;3.13;;;;;;;8.25;100.00;96856.81;7394479;19;20722;-73
2023/05/17 08:59:20;;;;;;;8.43;3.40;;;;;;;7.98;100.00;96839.22;7398458;19;20365;-73
2023/05/17 09:01:50;;;;;;;4.83;3.20;;;;;;;8.07;100.00;96844.56;7394075;19;20447;-73
2023/05/17 09:04:17;;;;;;;6.37;3.40;;;;;;;8.25;100.00;96869.97;7397586;19;20380;-73
2023/05/17 09:06:44;;;;;;;6.17;3.00;;;;;;;8.16;100.00;96845.44;7394910;19;20392;-73
2023/05/17 09:09:11;;;;;;;4.70;2.33;;;;;;;8.34;100.00;96835.84;7393458;19;20368;-73
2023/05/17 09:11:38;;;;;;;4.50;2.90;;;;;;;8.50;100.00;96821.22;7392577;19;20907;-73
2023/05/17 09:14:06;;;;;;;5.40;3.50;;;;;;;8.76;100.00;96862.78;7393436;19;20368;-73
2023/05/17 09:16:36;;;;;;;5.80;2.67;;;;;;;9.13;100.00;96880.06;7394876;19;20381;-73
2023/05/17 09:19:05;;;;;;;6.50;3.10;;;;;;;8.81;100.00;96883.75;7394701;19;20402;-73
2023/05/17 09:21:32;;;;;;;9.83;3.33;;;;;;;8.30;100.00;96859.34;7392941;19;20408;-73
2023/05/17 09:24:00;;;;;;;7.10;2.80;;;;;;;8.47;100.00;96877.16;7393487;19;20384;-73
2023/05/17 09:26:40;;;;;;;14.40;3.80;;;;;;;8.66;100.00;96881.47;7395001;19;20364;-73
2023/05/17 09:29:12;;;;;;;6.33;3.40;;;;;;;8.87;100.00;96887.84;7394062;19;20347;-73
2023/05/17 09:31:40;;;;;;;4.80;2.90;;;;;;;8.91;100.00;96883.50;7392731;19;20440;-73
2023/05/17 09:34:08;;;;;;;7.83;2.70;;;;;;;8.94;100.00;96896.09;7395033;19;20730;-73
2023/05/17 09:36:36;;;;;;;6.53;4.13;;;;;;;9.06;100.00;96896.31;7395638;19;20407;-73
2023/05/17 09:39:09;;;;;;;5.97;3.30;;;;;;;8.97;100.00;96897.38;7393847;19;20357;-74
2023/05/17 09:41:45;;;;;;;3.50;2.70;;;;;;;8.91;100.00;96888.78;7392406;19;20441;-73
2023/05/17 09:44:14;;;;;;;10.00;5.03;;;;;;;9.08;100.00;96888.09;7394389;19;20418;-73
2023/05/17 09:46:46;;;;;;;5.20;3.30;;;;;;;9.13;100.00;96914.38;7393193;19;20880;-74
2023/05/17 09:49:15;;;;;;;6.27;3.27;;;;;;;9.30;100.00;96911.03;7394749;19;20379;-74
2023/05/17 09:51:46;;;;;;;6.70;2.97;;;;;;;9.06;100.00;96914.78;7390844;19;20506;-73
2023/05/17 09:54:13;;;;;;;9.03;3.47;;;;;;;8.74;100.00;96888.69;7394378;19;20418;-73
2023/05/17 09:56:40;;;;;;;3.43;2.93;;;;;;;8.88;100.00;96892.81;7399193;19;20374;-73
2023/05/17 09:59:15;;;;;;;4.70;2.83;;;;;;;9.08;100.00;96919.75;7402147;19;20401;-73
2023/05/17 10:01:44;;;;;;;9.33;3.10;;;;;;;9.04;100.00;96919.56;7398144;19;20452;-73
2023/05/17 10:04:12;;;;;;;5.30;3.63;;;;;;;8.85;100.00;96911.09;7401907;19;20372;-73
2023/05/17 10:06:41;;;;;;;4.73;3.10;;;;;;;9.04;100.00;96906.38;7400626;19;20952;-73
2023/05/17 10:09:20;;;;;;;5.00;3.00;;;;;;;8.93;100.00;96914.84;7399624;19;20368;-73
2023/05/17 10:11:49;;;;;;;4.83;3.33;;;;;;;9.22;100.00;96912.56;7398130;19;20508;-74
2023/05/17 10:14:22;;;;;;;7.87;3.30;;;;;;;8.64;100.00;96894.97;7398972;19;20913;-73
2023/05/17 10:16:51;;;;;;;7.43;4.10;;;;;;;9.08;100.00;96906.56;7400556;19;20904;-73
2023/05/17 10:19:19;;;;;;;7.33;2.90;;;;;;;8.95;100.00;96883.66;7399160;19;20381;-73
2023/05/17 10:21:49;;;;;;;5.40;3.10;;;;;;;8.96;100.00;96906.34;7398098;19;20443;-73
2023/05/17 10:24:16;;;;;;;4.57;2.93;;;;;;;8.92;100.00;96890.34;7399418;19;20380;-73
2023/05/17 10:26:44;;;;;;;8.13;3.70;;;;;;;8.97;100.00;96906.06;7400670;19;20376;-73
2023/05/17 10:29:11;;;;;;;6.13;3.60;;;;;;;8.84;100.00;96897.13;7399773;19;20430;-73
2023/05/17 10:31:42;;;;;;;6.30;3.50;;;;;;;9.06;100.00;96916.63;7398406;19;20455;-73
2023/05/17 10:34:10;;;;;;;6.93;4.27;;;;;;;9.19;100.00;96913.16;7400749;19;20397;-74
2023/05/17 10:36:39;;;;;;;4.63;4.20;;;;;;;9.24;100.00;96906.97;7403201;19;20349;-73
2023/05/17 10:39:09;;;;;;;6.17;3.43;;;;;;;9.40;100.00;96916.84;7399013;19;20404;-73
2023/05/17 10:41:41;;;;;;;4.30;3.50;;;;;;;9.11;100.00;96892.78;7394252;19;20430;-73
2023/05/17 10:44:12;;;;;;;8.00;3.33;;;;;;;9.29;100.00;96909.47;7399170;19;20376;-73
2023/05/17 10:46:39;;;;;;;4.93;3.20;;;;;;;9.37;100.00;96916.66;7397971;19;20353;-73
2023/05/17 10:49:07;;;;;;;8.60;4.90;;;;;;;9.39;100.00;96891.53;7399238;19;20366;-73
2023/05/17 10:51:36;;;;;;;4.30;3.20;;;;;;;9.53;100.00;96912.53;7395687;19;20457;-73
2023/05/17 10:54:08;;;;;;;3.80;3.23;;;;;;;9.26;100.00;96918.78;7399670;19;20380;-73
2023/05/17 10:57:03;;;;;;;5.70;3.27;;;;;;;9.42;100.00;96901.47;7397699;19;20368;-73
2023/05/17 10:59:34;;;;;;;6.23;2.50;;;;;;;9.39;100.00;96904.72;7396175;19;20409;-73
2023/05/17 11:02:08;;;;;;;4.50;3.10;;;;;;;9.45;100.00;96905.34;7400080;19;20889;-73
2023/05/17 11:04:41;;;;;;;8.90;3.53;;;;;;;9.42;100.00;96888.28;7399395;19;20409;-73
2023/05/17 11:07:28;;;;;;;6.13;3.33;;;;;;;9.32;100.00;96899.09;7399618;19;20455;-73
2023/05/17 11:10:10;;;;;;;4.67;3.13;;;;;;;9.41;100.00;96870.09;7398306;19;20933;-73
2023/05/17 11:12:42;;;;;;;4.53;3.33;;;;;;;9.54;100.00;96881.66;7395809;19;20425;-73
2023/05/17 11:15:11;;;;;;;3.57;2.60;;;;;;;9.82;100.00;96882.97;7398748;19;20387;-73
2023/05/17 11:17:53;;;;;;;5.03;3.80;;;;;;;9.57;100.00;96879.16;7397047;19;20360;-73
2023/05/17 11:20:23;;;;;;;6.00;3.87;;;;;;;9.91;100.00;96873.22;7400089;19;20416;-73
2023/05/17 11:22:59;;;;;;;7.17;3.77;;;;;;;9.86;100.00;96870.69;7397767;19;20400;-73
2023/05/17 11:25:36;;;;;;;9.40;4.17;;;;;;;10.15;100.00;96858.78;7398337;19;20415;-73
2023/05/17 11:28:22;;;;;;;5.70;3.97;;;;;;;9.68;100.00;96824.22;7398253;19;20380;-74
2023/05/17 11:30:52;;;;;;;6.00;3.70;;;;;;;9.61;100.00;96852.94;7396238;19;20412;-73
2023/05/17 11:33:37;;;;;;;7.60;4.60;;;;;;;9.84;100.00;96869.47;7399067;19;20371;-73
2023/05/17 11:36:12;;;;;;;3.80;3.40;;;;;;;9.92;100.00;96879.28;7397661;19;20377;-73
2023/05/17 11:38:39;;;;;;;4.30;3.60;;;;;;;10.27;100.00;96859.75;7397168;19;20400;-73
2023/05/17 11:41:21;;;;;;;7.17;3.40;;;;;;;10.01;100.00;96880.81;7396733;19;20606;-73